sensor_id;sensor_type;location;lat;lon;timestamp;temperature;humidity
25877;DHT22;13692;47.480;19.216;2023-06-22T00:00:13;22.30;99.90
25877;DHT22;13692;47.480;19.216;2023-06-22T00:02:40;22.20;99.90
25877;DHT22;13692;47.480;19.216;2023-06-22T00:05:07;22.20;99.90
25877;DHT22;13692;47.480;19.216;2023-06-22T00:07:34;22.20;99.90
25877;DHT22;13692;47.480;19.216;2023-06-22T00:10:01;22.10;99.90
25877;DHT22;13692;47.480;19.216;2023-06-22T00:12:28;22.10;99.90
25877;DHT22;13692;47.480;19.216;2023-06-22T00:14:55;22.20;99.90
25877;DHT22;13692;47.480;19.216;2023-06-22T00:17:22;22.30;99.90
25877;DHT22;13692;47.480;19.216;2023-06-22T00:19:49;22.30;99.90
25877;DHT22;13692;47.480;19.216;2023-06-22T00:22:20;22.30;99.90
25877;DHT22;13692;47.480;19.216;2023-06-22T00:24:56;22.30;99.90
25877;DHT22;13692;47.480;19.216;2023-06-22T00:27:23;22.30;99.90
25877;DHT22;13692;47.480;19.216;2023-06-22T00:29:50;22.30;99.90
25877;DHT22;13692;47.480;19.216;2023-06-22T00:32:17;22.30;99.90
25877;DHT22;13692;47.480;19.216;2023-06-22T00:34:45;22.20;99.90
25877;DHT22;13692;47.480;19.216;2023-06-22T00:37:12;22.20;99.90
25877;DHT22;13692;47.480;19.216;2023-06-22T00:39:39;22.20;99.90
25877;DHT22;13692;47.480;19.216;2023-06-22T00:42:06;22.20;99.90
25877;DHT22;13692;47.480;19.216;2023-06-22T00:44:33;22.20;99.90
25877;DHT22;13692;47.480;19.216;2023-06-22T00:47:00;22.10;99.90
25877;DHT22;13692;47.480;19.216;2023-06-22T00:49:27;22.10;99.90
25877;DHT22;13692;47.480;19.216;2023-06-22T00:51:55;22.10;99.90
25877;DHT22;13692;47.480;19.216;2023-06-22T00:54:24;22.00;99.90
25877;DHT22;13692;47.480;19.216;2023-06-22T00:56:53;21.90;99.90
25877;DHT22;13692;47.480;19.216;2023-06-22T00:59:23;21.90;99.90
25877;DHT22;13692;47.480;19.216;2023-06-22T01:01:51;21.80;99.90
25877;DHT22;13692;47.480;19.216;2023-06-22T01:04:18;21.70;99.90
25877;DHT22;13692;47.480;19.216;2023-06-22T01:07:02;21.60;99.90
25877;DHT22;13692;47.480;19.216;2023-06-22T01:09:36;21.70;99.90
25877;DHT22;13692;47.480;19.216;2023-06-22T01:12:07;21.70;99.90
25877;DHT22;13692;47.480;19.216;2023-06-22T01:14:43;21.80;99.90
25877;DHT22;13692;47.480;19.216;2023-06-22T01:17:12;21.80;99.90
25877;DHT22;13692;47.480;19.216;2023-06-22T01:19:49;21.80;99.90
25877;DHT22;13692;47.480;19.216;2023-06-22T01:22:30;21.80;99.90
25877;DHT22;13692;47.480;19.216;2023-06-22T01:27:47;21.70;99.90
25877;DHT22;13692;47.480;19.216;2023-06-22T01:30:17;21.70;99.90
25877;DHT22;13692;47.480;19.216;2023-06-22T01:32:45;21.70;99.90
25877;DHT22;13692;47.480;19.216;2023-06-22T01:35:14;21.70;99.90
25877;DHT22;13692;47.480;19.216;2023-06-22T01:37:42;21.70;99.90
25877;DHT22;13692;47.480;19.216;2023-06-22T01:40:10;21.60;99.90
25877;DHT22;13692;47.480;19.216;2023-06-22T01:42:38;21.50;99.90
25877;DHT22;13692;47.480;19.216;2023-06-22T01:45:07;21.60;99.90
25877;DHT22;13692;47.480;19.216;2023-06-22T01:47:35;21.60;99.90
25877;DHT22;13692;47.480;19.216;2023-06-22T01:50:02;21.60;99.90
25877;DHT22;13692;47.480;19.216;2023-06-22T01:52:29;21.60;99.90
25877;DHT22;13692;47.480;19.216;2023-06-22T01:54:56;21.60;99.90
25877;DHT22;13692;47.480;19.216;2023-06-22T01:57:24;21.60;99.90
25877;DHT22;13692;47.480;19.216;2023-06-22T02:00:00;21.50;99.90
25877;DHT22;13692;47.480;19.216;2023-06-22T02:02:33;21.50;99.90
25877;DHT22;13692;47.480;19.216;2023-06-22T02:05:06;21.50;99.90
25877;DHT22;13692;47.480;19.216;2023-06-22T02:07:41;21.50;99.90
25877;DHT22;13692;47.480;19.216;2023-06-22T02:10:09;21.50;99.90
25877;DHT22;13692;47.480;19.216;2023-06-22T02:12:40;21.60;99.90
25877;DHT22;13692;47.480;19.216;2023-06-22T02:15:10;21.50;99.90
25877;DHT22;13692;47.480;19.216;2023-06-22T02:17:38;21.50;99.90
25877;DHT22;13692;47.480;19.216;2023-06-22T02:20:05;21.50;99.90
25877;DHT22;13692;47.480;19.216;2023-06-22T02:22:34;21.40;99.90
25877;DHT22;13692;47.480;19.216;2023-06-22T02:25:01;21.50;99.90
25877;DHT22;13692;47.480;19.216;2023-06-22T02:27:29;21.50;99.90
25877;DHT22;13692;47.480;19.216;2023-06-22T02:29:57;21.60;99.90
25877;DHT22;13692;47.480;19.216;2023-06-22T02:32:24;21.60;99.90
25877;DHT22;13692;47.480;19.216;2023-06-22T02:34:52;21.60;99.90
25877;DHT22;13692;47.480;19.216;2023-06-22T02:37:19;21.60;99.90
25877;DHT22;13692;47.480;19.216;2023-06-22T02:39:46;21.60;99.90
25877;DHT22;13692;47.480;19.216;2023-06-22T02:42:13;21.60;99.90
25877;DHT22;13692;47.480;19.216;2023-06-22T02:44:40;21.60;99.90
25877;DHT22;13692;47.480;19.216;2023-06-22T02:47:07;21.60;99.90
25877;DHT22;13692;47.480;19.216;2023-06-22T02:49:35;21.70;99.90
25877;DHT22;13692;47.480;19.216;2023-06-22T02:52:02;21.70;99.90
25877;DHT22;13692;47.480;19.216;2023-06-22T02:54:29;21.70;99.90
25877;DHT22;13692;47.480;19.216;2023-06-22T02:56:56;21.80;99.90
25877;DHT22;13692;47.480;19.216;2023-06-22T02:59:23;21.70;99.90
25877;DHT22;13692;47.480;19.216;2023-06-22T03:01:50;21.60;99.90
25877;DHT22;13692;47.480;19.216;2023-06-22T03:04:18;21.50;99.90
25877;DHT22;13692;47.480;19.216;2023-06-22T03:06:45;21.50;99.90
25877;DHT22;13692;47.480;19.216;2023-06-22T03:09:18;21.50;99.90
25877;DHT22;13692;47.480;19.216;2023-06-22T03:11:45;21.50;99.90
25877;DHT22;13692;47.480;19.216;2023-06-22T03:14:12;21.60;99.90
25877;DHT22;13692;47.480;19.216;2023-06-22T03:16:39;21.60;99.90
25877;DHT22;13692;47.480;19.216;2023-06-22T03:19:07;21.60;99.90
25877;DHT22;13692;47.480;19.216;2023-06-22T03:21:35;21.60;99.90
25877;DHT22;13692;47.480;19.216;2023-06-22T03:24:02;21.60;99.90
25877;DHT22;13692;47.480;19.216;2023-06-22T03:26:29;21.60;99.90
25877;DHT22;13692;47.480;19.216;2023-06-22T03:28:56;21.60;99.90
25877;DHT22;13692;47.480;19.216;2023-06-22T03:31:23;21.60;99.90
25877;DHT22;13692;47.480;19.216;2023-06-22T03:33:50;21.50;99.90
25877;DHT22;13692;47.480;19.216;2023-06-22T03:36:18;21.60;99.90
25877;DHT22;13692;47.480;19.216;2023-06-22T03:38:46;21.70;99.90
25877;DHT22;13692;47.480;19.216;2023-06-22T03:41:13;21.80;99.90
25877;DHT22;13692;47.480;19.216;2023-06-22T03:43:41;21.80;99.90
25877;DHT22;13692;47.480;19.216;2023-06-22T03:46:08;21.80;99.90
25877;DHT22;13692;47.480;19.216;2023-06-22T03:48:35;21.80;99.90
25877;DHT22;13692;47.480;19.216;2023-06-22T03:51:02;21.80;99.90
25877;DHT22;13692;47.480;19.216;2023-06-22T03:53:30;21.90;99.90
25877;DHT22;13692;47.480;19.216;2023-06-22T03:55:57;21.90;99.90
25877;DHT22;13692;47.480;19.216;2023-06-22T03:58:24;22.00;99.90
25877;DHT22;13692;47.480;19.216;2023-06-22T04:00:52;22.10;99.90
25877;DHT22;13692;47.480;19.216;2023-06-22T04:03:20;22.10;99.90
25877;DHT22;13692;47.480;19.216;2023-06-22T04:05:47;22.10;99.90
25877;DHT22;13692;47.480;19.216;2023-06-22T04:08:15;22.10;99.90
25877;DHT22;13692;47.480;19.216;2023-06-22T04:10:43;22.20;99.90
25877;DHT22;13692;47.480;19.216;2023-06-22T04:13:10;22.30;99.90
25877;DHT22;13692;47.480;19.216;2023-06-22T04:15:37;22.30;99.90
25877;DHT22;13692;47.480;19.216;2023-06-22T04:18:04;22.30;99.90
25877;DHT22;13692;47.480;19.216;2023-06-22T04:20:32;22.40;99.90
25877;DHT22;13692;47.480;19.216;2023-06-22T04:22:59;22.50;99.90
25877;DHT22;13692;47.480;19.216;2023-06-22T04:25:26;22.60;99.90
25877;DHT22;13692;47.480;19.216;2023-06-22T04:27:53;22.80;99.90
25877;DHT22;13692;47.480;19.216;2023-06-22T04:30:20;22.90;99.90
25877;DHT22;13692;47.480;19.216;2023-06-22T04:32:47;23.10;99.90
25877;DHT22;13692;47.480;19.216;2023-06-22T04:35:24;23.30;99.90
25877;DHT22;13692;47.480;19.216;2023-06-22T04:37:53;23.50;99.90
25877;DHT22;13692;47.480;19.216;2023-06-22T04:40:22;23.70;99.90
25877;DHT22;13692;47.480;19.216;2023-06-22T04:42:50;23.80;99.90
25877;DHT22;13692;47.480;19.216;2023-06-22T04:45:21;24.00;99.90
25877;DHT22;13692;47.480;19.216;2023-06-22T04:47:48;24.20;99.90
25877;DHT22;13692;47.480;19.216;2023-06-22T04:50:16;24.50;99.90
25877;DHT22;13692;47.480;19.216;2023-06-22T04:52:44;24.70;99.90
25877;DHT22;13692;47.480;19.216;2023-06-22T04:55:12;24.90;99.90
25877;DHT22;13692;47.480;19.216;2023-06-22T04:57:41;25.10;99.90
25877;DHT22;13692;47.480;19.216;2023-06-22T05:00:12;25.30;99.90
25877;DHT22;13692;47.480;19.216;2023-06-22T05:02:51;25.50;99.90
25877;DHT22;13692;47.480;19.216;2023-06-22T05:05:26;25.60;99.90
25877;DHT22;13692;47.480;19.216;2023-06-22T05:07:56;25.80;99.90
25877;DHT22;13692;47.480;19.216;2023-06-22T05:10:26;25.90;99.90
25877;DHT22;13692;47.480;19.216;2023-06-22T05:12:54;25.90;99.90
25877;DHT22;13692;47.480;19.216;2023-06-22T05:15:21;25.80;99.90
25877;DHT22;13692;47.480;19.216;2023-06-22T05:17:49;25.80;99.90
25877;DHT22;13692;47.480;19.216;2023-06-22T05:20:17;25.80;99.90
25877;DHT22;13692;47.480;19.216;2023-06-22T05:22:45;25.70;99.90
25877;DHT22;13692;47.480;19.216;2023-06-22T05:25:13;25.80;99.90
25877;DHT22;13692;47.480;19.216;2023-06-22T05:27:40;25.90;99.90
25877;DHT22;13692;47.480;19.216;2023-06-22T05:30:08;26.10;99.90
25877;DHT22;13692;47.480;19.216;2023-06-22T05:32:36;26.30;99.90
25877;DHT22;13692;47.480;19.216;2023-06-22T05:35:03;26.40;99.90
25877;DHT22;13692;47.480;19.216;2023-06-22T05:37:31;26.60;99.90
25877;DHT22;13692;47.480;19.216;2023-06-22T05:39:58;26.90;99.90
25877;DHT22;13692;47.480;19.216;2023-06-22T05:42:25;27.40;99.90
25877;DHT22;13692;47.480;19.216;2023-06-22T05:44:53;27.60;99.90
25877;DHT22;13692;47.480;19.216;2023-06-22T05:47:20;28.00;99.90
25877;DHT22;13692;47.480;19.216;2023-06-22T05:49:47;28.40;99.90
25877;DHT22;13692;47.480;19.216;2023-06-22T05:52:14;28.80;99.90
25877;DHT22;13692;47.480;19.216;2023-06-22T05:54:41;29.20;99.90
25877;DHT22;13692;47.480;19.216;2023-06-22T05:57:09;29.50;99.90
25877;DHT22;13692;47.480;19.216;2023-06-22T05:59:36;29.70;99.90
25877;DHT22;13692;47.480;19.216;2023-06-22T06:02:03;30.10;99.90
25877;DHT22;13692;47.480;19.216;2023-06-22T06:04:31;30.60;99.90
25877;DHT22;13692;47.480;19.216;2023-06-22T06:06:58;31.00;99.90
25877;DHT22;13692;47.480;19.216;2023-06-22T06:09:25;31.10;99.90
25877;DHT22;13692;47.480;19.216;2023-06-22T06:11:52;31.40;99.90
25877;DHT22;13692;47.480;19.216;2023-06-22T06:14:19;31.50;99.90
25877;DHT22;13692;47.480;19.216;2023-06-22T06:16:51;31.70;99.90
25877;DHT22;13692;47.480;19.216;2023-06-22T06:19:18;31.80;99.90
25877;DHT22;13692;47.480;19.216;2023-06-22T06:21:45;31.90;99.90
25877;DHT22;13692;47.480;19.216;2023-06-22T06:24:12;32.20;99.90
25877;DHT22;13692;47.480;19.216;2023-06-22T06:26:40;32.40;99.90
25877;DHT22;13692;47.480;19.216;2023-06-22T06:29:09;32.60;99.90
25877;DHT22;13692;47.480;19.216;2023-06-22T06:31:36;32.80;99.90
25877;DHT22;13692;47.480;19.216;2023-06-22T06:34:03;33.10;99.90
25877;DHT22;13692;47.480;19.216;2023-06-22T06:36:30;33.20;99.90
25877;DHT22;13692;47.480;19.216;2023-06-22T06:38:57;33.30;99.90
25877;DHT22;13692;47.480;19.216;2023-06-22T06:41:24;33.20;99.90
25877;DHT22;13692;47.480;19.216;2023-06-22T06:43:51;33.30;99.90
25877;DHT22;13692;47.480;19.216;2023-06-22T06:46:19;33.50;99.90
25877;DHT22;13692;47.480;19.216;2023-06-22T06:48:46;33.50;99.90
25877;DHT22;13692;47.480;19.216;2023-06-22T06:51:13;33.80;99.90
25877;DHT22;13692;47.480;19.216;2023-06-22T06:53:40;33.80;99.90
25877;DHT22;13692;47.480;19.216;2023-06-22T06:56:07;33.80;99.80
25877;DHT22;13692;47.480;19.216;2023-06-22T06:58:37;33.90;98.70
25877;DHT22;13692;47.480;19.216;2023-06-22T07:01:04;34.00;99.30
25877;DHT22;13692;47.480;19.216;2023-06-22T07:03:31;34.10;97.00
25877;DHT22;13692;47.480;19.216;2023-06-22T07:06:00;34.10;98.00
25877;DHT22;13692;47.480;19.216;2023-06-22T07:08:27;34.40;97.10
25877;DHT22;13692;47.480;19.216;2023-06-22T07:10:55;34.20;96.20
25877;DHT22;13692;47.480;19.216;2023-06-22T07:13:22;33.80;95.60
25877;DHT22;13692;47.480;19.216;2023-06-22T07:15:49;33.70;96.70
25877;DHT22;13692;47.480;19.216;2023-06-22T07:18:16;33.60;95.90
25877;DHT22;13692;47.480;19.216;2023-06-22T07:20:43;33.40;95.90
25877;DHT22;13692;47.480;19.216;2023-06-22T07:23:10;33.70;96.20
25877;DHT22;13692;47.480;19.216;2023-06-22T07:25:37;33.70;95.30
25877;DHT22;13692;47.480;19.216;2023-06-22T07:28:06;34.00;96.90
25877;DHT22;13692;47.480;19.216;2023-06-22T07:30:34;34.40;94.40
25877;DHT22;13692;47.480;19.216;2023-06-22T07:33:01;34.60;93.60
25877;DHT22;13692;47.480;19.216;2023-06-22T07:35:35;34.60;94.60
25877;DHT22;13692;47.480;19.216;2023-06-22T07:38:02;35.00;96.30
25877;DHT22;13692;47.480;19.216;2023-06-22T07:40:32;35.10;93.80
25877;DHT22;13692;47.480;19.216;2023-06-22T07:43:01;35.40;92.50
25877;DHT22;13692;47.480;19.216;2023-06-22T07:45:28;35.40;91.30
25877;DHT22;13692;47.480;19.216;2023-06-22T07:47:55;35.10;93.40
25877;DHT22;13692;47.480;19.216;2023-06-22T07:50:22;35.10;93.40
25877;DHT22;13692;47.480;19.216;2023-06-22T07:52:49;35.00;91.40
25877;DHT22;13692;47.480;19.216;2023-06-22T07:55:16;35.20;93.50
25877;DHT22;13692;47.480;19.216;2023-06-22T07:57:43;35.30;90.80
25877;DHT22;13692;47.480;19.216;2023-06-22T08:00:10;35.10;90.30
25877;DHT22;13692;47.480;19.216;2023-06-22T08:02:45;35.00;90.60
25877;DHT22;13692;47.480;19.216;2023-06-22T08:05:14;35.10;92.60
25877;DHT22;13692;47.480;19.216;2023-06-22T08:07:48;35.30;91.40
25877;DHT22;13692;47.480;19.216;2023-06-22T08:10:16;35.70;90.60
25877;DHT22;13692;47.480;19.216;2023-06-22T08:12:44;35.60;86.70
25877;DHT22;13692;47.480;19.216;2023-06-22T08:15:11;35.50;87.60
25877;DHT22;13692;47.480;19.216;2023-06-22T08:17:38;35.30;88.00
25877;DHT22;13692;47.480;19.216;2023-06-22T08:20:07;35.50;87.90
25877;DHT22;13692;47.480;19.216;2023-06-22T08:22:39;35.20;87.40
25877;DHT22;13692;47.480;19.216;2023-06-22T08:25:07;35.30;87.70
25877;DHT22;13692;47.480;19.216;2023-06-22T08:27:35;35.70;87.70
25877;DHT22;13692;47.480;19.216;2023-06-22T08:30:03;35.60;83.40
25877;DHT22;13692;47.480;19.216;2023-06-22T08:32:30;35.40;87.20
25877;DHT22;13692;47.480;19.216;2023-06-22T08:35:00;35.70;85.10
25877;DHT22;13692;47.480;19.216;2023-06-22T08:37:28;35.80;83.90
25877;DHT22;13692;47.480;19.216;2023-06-22T08:40:03;35.40;83.30
25877;DHT22;13692;47.480;19.216;2023-06-22T08:42:32;35.20;83.50
25877;DHT22;13692;47.480;19.216;2023-06-22T08:44:59;35.30;85.10
25877;DHT22;13692;47.480;19.216;2023-06-22T08:47:29;35.60;84.60
25877;DHT22;13692;47.480;19.216;2023-06-22T08:49:56;35.80;83.90
25877;DHT22;13692;47.480;19.216;2023-06-22T08:52:23;36.10;84.50
25877;DHT22;13692;47.480;19.216;2023-06-22T08:54:51;36.20;83.50
25877;DHT22;13692;47.480;19.216;2023-06-22T08:57:18;36.10;83.90
25877;DHT22;13692;47.480;19.216;2023-06-22T08:59:45;36.10;83.30
25877;DHT22;13692;47.480;19.216;2023-06-22T09:02:12;35.90;82.50
25877;DHT22;13692;47.480;19.216;2023-06-22T09:04:39;35.60;84.50
25877;DHT22;13692;47.480;19.216;2023-06-22T09:07:07;35.20;84.20
25877;DHT22;13692;47.480;19.216;2023-06-22T09:09:34;35.50;85.20
25877;DHT22;13692;47.480;19.216;2023-06-22T09:12:02;35.40;83.90
25877;DHT22;13692;47.480;19.216;2023-06-22T09:14:29;35.30;83.70
25877;DHT22;13692;47.480;19.216;2023-06-22T09:16:56;35.20;84.40
25877;DHT22;13692;47.480;19.216;2023-06-22T09:19:23;35.40;85.30
25877;DHT22;13692;47.480;19.216;2023-06-22T09:21:50;35.70;86.30
25877;DHT22;13692;47.480;19.216;2023-06-22T09:24:17;36.20;86.70
25877;DHT22;13692;47.480;19.216;2023-06-22T09:26:44;36.20;83.60
25877;DHT22;13692;47.480;19.216;2023-06-22T09:29:11;35.80;87.00
25877;DHT22;13692;47.480;19.216;2023-06-22T09:31:38;35.90;84.50
25877;DHT22;13692;47.480;19.216;2023-06-22T09:34:06;35.70;83.70
25877;DHT22;13692;47.480;19.216;2023-06-22T09:36:33;35.50;85.00
25877;DHT22;13692;47.480;19.216;2023-06-22T09:38:59;35.60;84.20
25877;DHT22;13692;47.480;19.216;2023-06-22T09:41:32;35.50;83.10
25877;DHT22;13692;47.480;19.216;2023-06-22T09:43:59;35.40;84.90
25877;DHT22;13692;47.480;19.216;2023-06-22T09:46:26;35.60;86.10
25877;DHT22;13692;47.480;19.216;2023-06-22T09:48:54;35.50;83.50
25877;DHT22;13692;47.480;19.216;2023-06-22T09:51:22;35.00;85.50
25877;DHT22;13692;47.480;19.216;2023-06-22T09:53:51;34.60;85.50
25877;DHT22;13692;47.480;19.216;2023-06-22T09:56:18;35.00;88.00
25877;DHT22;13692;47.480;19.216;2023-06-22T09:58:46;35.40;88.10
25877;DHT22;13692;47.480;19.216;2023-06-22T10:01:14;35.70;86.60
25877;DHT22;13692;47.480;19.216;2023-06-22T10:03:41;35.80;86.70
25877;DHT22;13692;47.480;19.216;2023-06-22T10:06:09;35.80;84.00
25877;DHT22;13692;47.480;19.216;2023-06-22T10:08:36;35.60;85.70
25877;DHT22;13692;47.480;19.216;2023-06-22T10:11:03;35.70;87.10
25877;DHT22;13692;47.480;19.216;2023-06-22T10:13:31;35.70;85.70
25877;DHT22;13692;47.480;19.216;2023-06-22T10:15:58;35.30;84.50
25877;DHT22;13692;47.480;19.216;2023-06-22T10:18:25;35.10;85.00
25877;DHT22;13692;47.480;19.216;2023-06-22T10:20:52;35.20;87.00
25877;DHT22;13692;47.480;19.216;2023-06-22T10:23:20;35.20;85.70
25877;DHT22;13692;47.480;19.216;2023-06-22T10:25:47;35.00;87.60
25877;DHT22;13692;47.480;19.216;2023-06-22T10:28:14;35.20;89.00
25877;DHT22;13692;47.480;19.216;2023-06-22T10:30:42;35.20;88.50
25877;DHT22;13692;47.480;19.216;2023-06-22T10:33:10;35.10;86.90
25877;DHT22;13692;47.480;19.216;2023-06-22T10:35:37;34.80;86.70
25877;DHT22;13692;47.480;19.216;2023-06-22T10:38:05;34.60;90.20
25877;DHT22;13692;47.480;19.216;2023-06-22T10:40:32;34.50;90.10
25877;DHT22;13692;47.480;19.216;2023-06-22T10:42:59;34.30;88.70
25877;DHT22;13692;47.480;19.216;2023-06-22T10:45:26;33.70;90.20
25877;DHT22;13692;47.480;19.216;2023-06-22T10:47:55;33.10;90.30
25877;DHT22;13692;47.480;19.216;2023-06-22T10:50:22;33.00;91.30
25877;DHT22;13692;47.480;19.216;2023-06-22T10:52:51;33.10;91.20
25877;DHT22;13692;47.480;19.216;2023-06-22T10:55:18;32.90;91.40
25877;DHT22;13692;47.480;19.216;2023-06-22T10:57:45;33.10;91.80
25877;DHT22;13692;47.480;19.216;2023-06-22T11:00:14;33.10;90.70
25877;DHT22;13692;47.480;19.216;2023-06-22T11:02:43;33.20;91.40
25877;DHT22;13692;47.480;19.216;2023-06-22T11:05:11;33.20;90.90
25877;DHT22;13692;47.480;19.216;2023-06-22T11:07:42;33.30;90.90
25877;DHT22;13692;47.480;19.216;2023-06-22T11:10:11;33.50;90.90
25877;DHT22;13692;47.480;19.216;2023-06-22T11:12:38;33.40;90.80
25877;DHT22;13692;47.480;19.216;2023-06-22T11:15:06;33.20;90.80
25877;DHT22;13692;47.480;19.216;2023-06-22T11:17:33;33.20;92.00
25877;DHT22;13692;47.480;19.216;2023-06-22T11:20:00;33.20;90.90
25877;DHT22;13692;47.480;19.216;2023-06-22T11:22:27;32.80;91.30
25877;DHT22;13692;47.480;19.216;2023-06-22T11:24:54;32.80;91.70
25877;DHT22;13692;47.480;19.216;2023-06-22T11:27:21;33.10;92.80
25877;DHT22;13692;47.480;19.216;2023-06-22T11:29:48;33.40;92.30
25877;DHT22;13692;47.480;19.216;2023-06-22T11:32:16;33.40;90.20
25877;DHT22;13692;47.480;19.216;2023-06-22T11:34:43;33.20;90.30
25877;DHT22;13692;47.480;19.216;2023-06-22T11:37:10;33.10;90.70
25877;DHT22;13692;47.480;19.216;2023-06-22T11:39:37;32.90;90.70
25877;DHT22;13692;47.480;19.216;2023-06-22T11:42:13;33.00;90.70
25877;DHT22;13692;47.480;19.216;2023-06-22T11:44:41;33.10;91.00
25877;DHT22;13692;47.480;19.216;2023-06-22T11:47:08;33.10;91.30
25877;DHT22;13692;47.480;19.216;2023-06-22T11:49:35;33.20;91.10
25877;DHT22;13692;47.480;19.216;2023-06-22T11:52:02;33.20;90.80
25877;DHT22;13692;47.480;19.216;2023-06-22T11:54:29;33.40;90.80
25877;DHT22;13692;47.480;19.216;2023-06-22T11:56:56;33.60;91.30
25877;DHT22;13692;47.480;19.216;2023-06-22T11:59:23;33.70;89.10
25877;DHT22;13692;47.480;19.216;2023-06-22T12:01:50;33.60;88.80
25877;DHT22;13692;47.480;19.216;2023-06-22T12:04:18;33.60;90.40
25877;DHT22;13692;47.480;19.216;2023-06-22T12:06:45;33.60;88.50
25877;DHT22;13692;47.480;19.216;2023-06-22T12:09:12;33.60;89.00
25877;DHT22;13692;47.480;19.216;2023-06-22T12:11:40;33.40;90.10
25877;DHT22;13692;47.480;19.216;2023-06-22T12:14:07;33.50;90.70
25877;DHT22;13692;47.480;19.216;2023-06-22T12:16:34;33.60;90.30
25877;DHT22;13692;47.480;19.216;2023-06-22T12:19:01;33.50;89.30
25877;DHT22;13692;47.480;19.216;2023-06-22T12:21:28;33.40;89.20
25877;DHT22;13692;47.480;19.216;2023-06-22T12:23:55;33.50;90.50
25877;DHT22;13692;47.480;19.216;2023-06-22T12:26:23;33.30;89.50
25877;DHT22;13692;47.480;19.216;2023-06-22T12:28:49;33.10;90.30
25877;DHT22;13692;47.480;19.216;2023-06-22T12:31:17;33.00;90.70
25877;DHT22;13692;47.480;19.216;2023-06-22T12:33:44;33.00;91.70
25877;DHT22;13692;47.480;19.216;2023-06-22T12:36:11;33.20;90.80
25877;DHT22;13692;47.480;19.216;2023-06-22T12:38:38;33.20;90.20
25877;DHT22;13692;47.480;19.216;2023-06-22T12:41:05;33.30;90.40
25877;DHT22;13692;47.480;19.216;2023-06-22T12:43:32;33.30;90.50
25877;DHT22;13692;47.480;19.216;2023-06-22T12:45:59;33.40;90.10
25877;DHT22;13692;47.480;19.216;2023-06-22T12:48:26;33.40;90.10
25877;DHT22;13692;47.480;19.216;2023-06-22T12:50:54;33.50;90.10
25877;DHT22;13692;47.480;19.216;2023-06-22T12:53:21;33.50;91.00
25877;DHT22;13692;47.480;19.216;2023-06-22T12:55:50;33.50;88.40
25877;DHT22;13692;47.480;19.216;2023-06-22T12:58:17;33.50;90.00
25877;DHT22;13692;47.480;19.216;2023-06-22T13:00:44;33.60;90.50
25877;DHT22;13692;47.480;19.216;2023-06-22T13:03:11;33.50;90.60
25877;DHT22;13692;47.480;19.216;2023-06-22T13:05:39;33.50;89.90
25877;DHT22;13692;47.480;19.216;2023-06-22T13:08:06;33.30;91.00
25877;DHT22;13692;47.480;19.216;2023-06-22T13:10:33;33.20;91.30
25877;DHT22;13692;47.480;19.216;2023-06-22T13:13:00;33.30;91.80
25877;DHT22;13692;47.480;19.216;2023-06-22T13:15:28;33.30;90.40
25877;DHT22;13692;47.480;19.216;2023-06-22T13:17:56;33.40;90.90
25877;DHT22;13692;47.480;19.216;2023-06-22T13:20:23;33.50;91.00
25877;DHT22;13692;47.480;19.216;2023-06-22T13:22:50;33.60;90.00
25877;DHT22;13692;47.480;19.216;2023-06-22T13:25:17;33.40;89.20
25877;DHT22;13692;47.480;19.216;2023-06-22T13:27:46;33.40;89.70
25877;DHT22;13692;47.480;19.216;2023-06-22T13:30:14;33.40;90.00
25877;DHT22;13692;47.480;19.216;2023-06-22T13:32:41;33.40;90.10
25877;DHT22;13692;47.480;19.216;2023-06-22T13:35:10;33.40;90.80
25877;DHT22;13692;47.480;19.216;2023-06-22T13:37:37;33.30;91.00
25877;DHT22;13692;47.480;19.216;2023-06-22T13:40:06;33.30;90.70
25877;DHT22;13692;47.480;19.216;2023-06-22T13:42:33;33.10;91.70
25877;DHT22;13692;47.480;19.216;2023-06-22T13:45:01;33.20;91.10
25877;DHT22;13692;47.480;19.216;2023-06-22T13:47:29;33.10;90.70
25877;DHT22;13692;47.480;19.216;2023-06-22T13:49:58;33.10;91.20
25877;DHT22;13692;47.480;19.216;2023-06-22T13:52:25;33.00;90.80
25877;DHT22;13692;47.480;19.216;2023-06-22T13:54:52;33.00;90.60
25877;DHT22;13692;47.480;19.216;2023-06-22T13:57:19;32.90;90.20
25877;DHT22;13692;47.480;19.216;2023-06-22T13:59:46;33.00;90.70
25877;DHT22;13692;47.480;19.216;2023-06-22T14:02:13;33.10;90.10
25877;DHT22;13692;47.480;19.216;2023-06-22T14:04:40;33.10;90.90
25877;DHT22;13692;47.480;19.216;2023-06-22T14:07:07;33.10;91.20
25877;DHT22;13692;47.480;19.216;2023-06-22T14:09:34;33.20;91.10
25877;DHT22;13692;47.480;19.216;2023-06-22T14:12:05;33.20;90.50
25877;DHT22;13692;47.480;19.216;2023-06-22T14:14:35;33.00;89.10
25877;DHT22;13692;47.480;19.216;2023-06-22T14:17:02;32.90;89.60
25877;DHT22;13692;47.480;19.216;2023-06-22T14:19:30;32.80;90.70
25877;DHT22;13692;47.480;19.216;2023-06-22T14:21:57;32.90;91.20
25877;DHT22;13692;47.480;19.216;2023-06-22T14:24:24;32.90;90.00
25877;DHT22;13692;47.480;19.216;2023-06-22T14:26:55;32.90;91.00
25877;DHT22;13692;47.480;19.216;2023-06-22T14:29:22;33.00;90.30
25877;DHT22;13692;47.480;19.216;2023-06-22T14:31:49;32.90;89.30
25877;DHT22;13692;47.480;19.216;2023-06-22T14:34:16;32.90;89.40
25877;DHT22;13692;47.480;19.216;2023-06-22T14:36:43;32.80;90.10
25877;DHT22;13692;47.480;19.216;2023-06-22T14:39:10;32.80;90.00
25877;DHT22;13692;47.480;19.216;2023-06-22T14:41:37;32.90;90.70
25877;DHT22;13692;47.480;19.216;2023-06-22T14:44:04;32.90;90.30
25877;DHT22;13692;47.480;19.216;2023-06-22T14:46:31;32.90;90.70
25877;DHT22;13692;47.480;19.216;2023-06-22T14:48:58;32.90;90.70
25877;DHT22;13692;47.480;19.216;2023-06-22T14:51:25;32.70;90.80
25877;DHT22;13692;47.480;19.216;2023-06-22T14:53:53;32.70;91.50
25877;DHT22;13692;47.480;19.216;2023-06-22T14:56:20;32.70;91.10
25877;DHT22;13692;47.480;19.216;2023-06-22T14:58:47;32.70;91.00
25877;DHT22;13692;47.480;19.216;2023-06-22T15:01:17;32.60;91.10
25877;DHT22;13692;47.480;19.216;2023-06-22T15:03:44;32.70;91.20
25877;DHT22;13692;47.480;19.216;2023-06-22T15:06:12;32.80;91.20
25877;DHT22;13692;47.480;19.216;2023-06-22T15:08:39;32.70;91.00
25877;DHT22;13692;47.480;19.216;2023-06-22T15:11:07;32.70;91.00
25877;DHT22;13692;47.480;19.216;2023-06-22T15:13:34;32.60;90.60
25877;DHT22;13692;47.480;19.216;2023-06-22T15:16:02;32.70;91.40
25877;DHT22;13692;47.480;19.216;2023-06-22T15:18:33;32.70;91.70
25877;DHT22;13692;47.480;19.216;2023-06-22T15:21:03;32.70;91.50